Terminal Aerodrome Forecast
Issued by NWS Charleston, WV

Current Version | Previous Version | Graphics & Text | Print | Product List | Glossary On
Versions: 1 2 3 4 5 6 7 8 9 10 11 12 13 14 15 16 17 18 19 20
835
FTUS41 KRLX 032330
TAFBKW
TAF
KBKW 032330Z 0400/0424 25007KT P6SM SCT030
     FM040200 27007KT P6SM BKN035
     FM040500 29008KT P6SM BKN015
     FM041400 29008KT 5SM -SHSN BKN010
     FM041800 30008KT P6SM BKN025
     FM042000 31008KT P6SM BKN040=

USA.gov is the U.S. government's official web portal to all federal, state and local government web resources and services.